Time;durP1;ratioP1;P1;durP2;ratioP2;P2;SDS_P1;SDS_P2;PMS_P1;PMS_P2;Temp;Humidity;BMP_temperature;BMP_pressure;BME280_temperature;BME280_humidity;BME280_pressure;Samples;Min_cycle;Max_cycle;Signal;HPM_P1;HPM_P2
2021/11/26 00:01:29;;;;;;;26.52;13.95;;;;;;;0.27;76.19;94654.41;5113746;28;20055;-74
2021/11/26 00:03:55;;;;;;;26.92;14.45;;;;;;;0.36;76.16;94664.22;5130672;27;20035;-74
2021/11/26 00:06:20;;;;;;;26.52;13.77;;;;;;;0.26;75.41;94666.38;5113385;27;20049;-73
2021/11/26 00:08:45;;;;;;;28.27;15.07;;;;;;;0.29;74.98;94686.66;5113590;27;20039;-73
2021/11/26 00:11:11;;;;;;;26.08;13.93;;;;;;;0.25;75.01;94674.91;5096490;27;20038;-74
2021/11/26 00:13:43;;;;;;;25.83;13.63;;;;;;;0.28;75.00;94677.34;5130633;27;20503;-73
2021/11/26 00:16:15;;;;;;;33.60;18.73;;;;;;;0.16;74.93;94675.34;5131692;27;20403;-74
2021/11/26 00:18:48;;;;;;;35.10;16.98;;;;;;;0.09;74.40;94654.34;5114364;28;20076;-73
2021/11/26 00:21:13;;;;;;;54.15;29.50;;;;;;;0.16;75.49;94660.81;5131837;27;20088;-74
2021/11/26 00:23:38;;;;;;;63.78;36.08;;;;;;;0.11;75.81;94669.59;5130514;28;20019;-74
2021/11/26 00:26:04;;;;;;;52.90;28.65;;;;;;;0.19;75.23;94675.19;5130471;28;20023;-74
2021/11/26 00:28:29;;;;;;;43.72;25.08;;;;;;;0.22;75.66;94664.84;5113377;28;20031;-73
2021/11/26 00:30:55;;;;;;;43.60;24.60;;;;;;;0.19;75.13;94663.25;5113269;28;20031;-74
2021/11/26 00:33:23;;;;;;;37.17;21.80;;;;;;;0.10;75.33;94643.22;5130484;28;20034;-74
2021/11/26 00:35:49;;;;;;;31.38;17.63;;;;;;;0.28;75.35;94664.59;5113252;28;20045;-74
2021/11/26 00:38:15;;;;;;;29.95;15.13;;;;;;;0.33;74.99;94665.19;5113214;28;20428;-74
2021/11/26 00:40:41;;;;;;;27.48;15.48;;;;;;;0.32;75.70;94663.53;5096365;28;20027;-74
2021/11/26 00:43:06;;;;;;;31.58;14.40;;;;;;;0.39;75.38;94674.28;5113300;28;20024;-74
2021/11/26 00:45:32;;;;;;;26.42;14.07;;;;;;;0.49;75.86;94667.06;5130501;28;20031;-73
2021/11/26 00:47:57;;;;;;;28.13;15.52;;;;;;;0.57;75.79;94672.66;5130231;27;20023;-74
2021/11/26 00:50:23;;;;;;;23.92;13.52;;;;;;;0.56;75.61;94663.31;5130453;28;20416;-74
2021/11/26 00:52:48;;;;;;;24.60;13.45;;;;;;;0.72;76.14;94668.53;5130218;27;20489;-74
2021/11/26 00:55:13;;;;;;;28.10;15.57;;;;;;;0.72;76.28;94661.69;5096151;28;20469;-74
2021/11/26 00:57:40;;;;;;;25.85;14.27;;;;;;;0.80;75.69;94662.16;5130116;28;20031;-74
2021/11/26 01:00:06;;;;;;;26.33;13.85;;;;;;;0.87;75.92;94658.44;5130345;28;20080;-74
2021/11/26 01:02:32;;;;;;;29.15;15.25;;;;;;;0.81;76.20;94628.03;5113162;28;20027;-74
2021/11/26 01:04:57;;;;;;;34.25;18.20;;;;;;;0.86;76.25;94636.31;5112739;28;20424;-73
2021/11/26 01:07:23;;;;;;;27.65;14.68;;;;;;;0.92;75.89;94630.09;5096050;28;20031;-74
2021/11/26 01:09:48;;;;;;;27.35;15.95;;;;;;;0.91;76.44;94622.47;5130601;27;20499;-74
2021/11/26 01:12:14;;;;;;;28.50;15.98;;;;;;;0.92;76.04;94616.44;5134017;27;20472;-74
2021/11/26 01:14:39;;;;;;;26.63;15.23;;;;;;;0.94;76.39;94606.97;5133954;27;20031;-74
2021/11/26 01:17:05;;;;;;;28.70;15.35;;;;;;;1.01;76.67;94618.56;5133847;27;20023;-74
2021/11/26 01:19:30;;;;;;;25.60;15.18;;;;;;;1.11;76.35;94624.88;5116756;27;20527;-74
2021/11/26 01:21:55;;;;;;;29.02;15.68;;;;;;;0.99;76.53;94600.72;5135012;27;20051;-74
2021/11/26 01:24:21;;;;;;;30.02;16.05;;;;;;;1.12;76.79;94606.09;5133629;27;20046;-74
2021/11/26 01:26:46;;;;;;;25.45;13.25;;;;;;;1.19;76.61;94597.19;5134850;27;20023;-74
2021/11/26 01:29:12;;;;;;;27.50;16.27;;;;;;;1.26;76.95;94588.31;5116513;27;20470;-74
2021/11/26 01:31:38;;;;;;;28.38;15.75;;;;;;;1.35;76.38;94581.91;5116737;27;20027;-74
2021/11/26 01:34:04;;;;;;;27.98;15.48;;;;;;;1.36;76.34;94582.72;5116516;27;20038;-74
2021/11/26 01:36:30;;;;;;;29.10;16.30;;;;;;;1.37;76.28;94563.91;5116344;27;20019;-74
2021/11/26 01:38:55;;;;;;;31.58;16.42;;;;;;;1.37;76.72;94556.25;5116085;27;20520;-74
2021/11/26 01:41:21;;;;;;;30.50;16.67;;;;;;;1.46;76.05;94568.56;5133522;27;20028;-74
2021/11/26 01:43:46;;;;;;;28.90;16.40;;;;;;;1.43;75.82;94553.34;5116295;27;20484;-74
2021/11/26 01:46:12;;;;;;;29.95;16.23;;;;;;;1.44;76.40;94552.44;5133308;27;20024;-74
2021/11/26 01:48:39;;;;;;;23.50;12.43;;;;;;;1.59;76.23;94556.78;5133172;27;20027;-74
2021/11/26 01:51:04;;;;;;;27.85;15.98;;;;;;;1.53;76.24;94551.97;5116205;27;20027;-74
2021/11/26 01:53:30;;;;;;;31.05;17.70;;;;;;;1.54;76.00;94551.06;5099012;27;20031;-74
2021/11/26 01:55:55;;;;;;;28.65;15.70;;;;;;;1.60;76.35;94545.63;5133078;27;20023;-74
2021/11/26 01:58:21;;;;;;;26.70;15.32;;;;;;;1.64;76.44;94536.03;5115965;27;20385;-74
2021/11/26 02:00:47;;;;;;;23.42;12.77;;;;;;;1.67;75.86;94535.88;5134189;27;20492;-74
2021/11/26 02:03:12;;;;;;;27.58;14.80;;;;;;;1.66;75.97;94535.06;5133084;27;20537;-74
2021/11/26 02:05:38;;;;;;;24.27;13.27;;;;;;;1.68;75.95;94522.19;5115771;27;20577;-74
2021/11/26 02:08:03;;;;;;;28.33;15.27;;;;;;;1.71;75.55;94509.22;5132960;27;20027;-74
2021/11/26 02:10:29;;;;;;;28.33;15.52;;;;;;;1.84;75.17;94512.78;5133043;27;20070;-74
2021/11/26 02:12:54;;;;;;;26.92;14.95;;;;;;;1.79;76.01;94515.56;5132845;27;20027;-73
2021/11/26 02:15:23;;;;;;;24.48;13.73;;;;;;;1.68;75.59;94492.28;5115813;27;20499;-74
2021/11/26 02:17:52;;;;;;;28.02;15.27;;;;;;;1.88;75.77;94516.81;5115525;27;20512;-74
2021/11/26 02:20:19;;;;;;;25.40;14.02;;;;;;;1.92;75.01;94525.16;5132541;27;20023;-74
2021/11/26 02:22:46;;;;;;;26.77;14.45;;;;;;;2.00;75.65;94523.00;5097980;27;20031;-74
2021/11/26 02:25:11;;;;;;;27.77;14.77;;;;;;;2.00;75.40;94495.66;5098644;27;20031;-74
2021/11/26 02:27:37;;;;;;;39.25;22.15;;;;;;;1.71;76.02;94492.09;5115679;27;20034;-74
2021/11/26 02:30:13;;;;;;;42.08;24.35;;;;;;;1.76;75.56;94491.88;5115507;27;20160;-74
2021/11/26 02:32:39;;;;;;;35.55;21.40;;;;;;;1.82;75.67;94501.78;5116779;27;20031;-74
2021/11/26 02:35:04;;;;;;;38.80;22.13;;;;;;;1.77;75.45;94494.34;5133959;27;20031;-74
2021/11/26 02:37:30;;;;;;;41.65;22.13;;;;;;;1.64;75.89;94490.75;5132263;27;20132;-75
2021/11/26 02:39:55;;;;;;;38.80;22.00;;;;;;;1.74;75.81;94486.00;5132291;27;20095;-74
2021/11/26 02:42:25;;;;;;;33.95;19.58;;;;;;;1.82;75.29;94488.16;5132257;27;20023;-74
2021/11/26 02:44:50;;;;;;;38.33;21.23;;;;;;;1.86;75.31;94490.44;5132135;27;20106;-74
2021/11/26 02:47:16;;;;;;;37.55;21.65;;;;;;;1.87;74.79;94481.06;5132169;27;20031;-74
2021/11/26 02:49:41;;;;;;;36.22;21.50;;;;;;;1.90;75.41;94478.31;5115015;27;20035;-74
2021/11/26 02:52:07;;;;;;;32.03;17.88;;;;;;;1.97;75.11;94484.75;5114945;27;20034;-74
2021/11/26 02:54:33;;;;;;;28.42;16.20;;;;;;;1.95;75.50;94463.50;5131884;27;20037;-74
2021/11/26 02:56:58;;;;;;;29.83;16.17;;;;;;;2.07;75.29;94464.59;5114740;27;20028;-74
2021/11/26 02:59:24;;;;;;;29.77;16.52;;;;;;;2.09;75.07;94457.63;5114740;27;20397;-74
2021/11/26 03:01:49;;;;;;;27.92;16.48;;;;;;;2.09;75.04;94461.03;5133050;27;20026;-74
2021/11/26 03:04:14;;;;;;;42.63;23.52;;;;;;;2.11;75.44;94459.19;5114390;27;20027;-74
2021/11/26 03:06:40;;;;;;;44.95;24.83;;;;;;;2.12;75.50;94445.47;5133012;27;20034;-74
2021/11/26 03:09:05;;;;;;;44.50;24.05;;;;;;;2.15;75.28;94440.19;5114566;27;20066;-74
2021/11/26 03:11:31;;;;;;;58.15;30.30;;;;;;;2.15;75.08;94450.44;5114549;27;20473;-75
2021/11/26 03:13:56;;;;;;;48.05;27.70;;;;;;;2.09;74.79;94435.41;5131460;27;20484;-74
2021/11/26 03:16:21;;;;;;;42.35;23.45;;;;;;;2.14;75.21;94433.38;5114421;27;20583;-74
2021/11/26 03:18:47;;;;;;;45.08;24.90;;;;;;;2.17;74.42;94424.72;5131511;27;20488;-75
2021/11/26 03:21:12;;;;;;;43.15;23.67;;;;;;;2.17;74.83;94428.13;5114354;27;20488;-75
2021/11/26 03:23:38;;;;;;;46.15;25.65;;;;;;;2.21;74.52;94447.53;5131423;27;20027;-75
2021/11/26 03:26:03;;;;;;;48.22;27.67;;;;;;;2.10;74.87;94429.38;5114081;27;20019;-75
2021/11/26 03:28:29;;;;;;;55.88;31.98;;;;;;;2.02;74.93;94413.59;5114029;27;20492;-74
2021/11/26 03:30:54;;;;;;;58.22;33.65;;;;;;;2.17;74.92;94437.53;5131211;27;20023;-74
2021/11/26 03:33:20;;;;;;;53.17;28.20;;;;;;;2.17;74.40;94433.25;5096371;28;20023;-75
2021/11/26 03:35:46;;;;;;;55.35;28.83;;;;;;;2.19;74.40;94430.59;5132840;27;20400;-75
2021/11/26 03:38:11;;;;;;;56.35;28.02;;;;;;;2.18;74.82;94429.75;5132385;27;20027;-75
2021/11/26 03:40:36;;;;;;;55.65;31.70;;;;;;;2.04;74.70;94429.72;5131291;27;20027;-75
2021/11/26 03:43:02;;;;;;;59.60;33.35;;;;;;;1.96;75.12;94437.81;5096946;27;20107;-74
2021/11/26 03:45:29;;;;;;;52.47;29.85;;;;;;;2.01;75.31;94442.69;5114060;27;20034;-75
2021/11/26 03:47:54;;;;;;;47.47;28.08;;;;;;;2.03;74.89;94435.72;5113948;27;20098;-75
2021/11/26 03:50:20;;;;;;;51.08;28.92;;;;;;;2.02;74.82;94428.97;5131065;27;20027;-75
2021/11/26 03:52:45;;;;;;;50.60;27.98;;;;;;;2.03;74.70;94417.78;5096833;27;20477;-75
2021/11/26 03:55:13;;;;;;;49.20;28.48;;;;;;;1.97;75.15;94408.72;5130976;27;20061;-74
2021/11/26 03:57:40;;;;;;;50.17;28.13;;;;;;;1.86;75.28;94403.34;5130804;27;20041;-75
2021/11/26 04:00:06;;;;;;;47.53;26.63;;;;;;;1.89;75.37;94398.06;5114048;27;20031;-74
2021/11/26 04:02:32;;;;;;;42.00;23.65;;;;;;;1.97;74.98;94392.50;5130700;27;20046;-74
2021/11/26 04:04:57;;;;;;;42.45;21.90;;;;;;;1.99;75.10;94383.84;5130615;27;20055;-75
2021/11/26 04:07:23;;;;;;;45.15;26.98;;;;;;;1.92;75.03;94379.13;5132006;27;20053;-74
2021/11/26 04:09:48;;;;;;;41.40;24.30;;;;;;;1.87;74.84;94374.28;5113455;27;20038;-74
2021/11/26 04:12:14;;;;;;;41.03;23.67;;;;;;;1.91;75.38;94367.25;5113780;27;20023;-74
2021/11/26 04:14:40;;;;;;;36.13;20.67;;;;;;;1.88;75.33;94349.50;5130665;27;20027;-74
2021/11/26 04:17:09;;;;;;;32.72;19.65;;;;;;;1.96;75.03;94362.69;5113576;28;20132;-74
2021/11/26 04:19:35;;;;;;;29.98;18.52;;;;;;;1.89;75.66;94361.38;5130676;28;20062;-74
2021/11/26 04:22:00;;;;;;;31.75;17.13;;;;;;;1.85;75.44;94336.84;5113362;28;20072;-74
2021/11/26 04:24:26;;;;;;;32.92;18.48;;;;;;;1.93;75.51;94358.56;5130573;28;20049;-74
2021/11/26 04:26:51;;;;;;;31.40;17.58;;;;;;;1.91;75.49;94352.69;5132030;27;20019;-74
2021/11/26 04:29:16;;;;;;;28.60;16.73;;;;;;;1.84;75.36;94332.63;5113235;28;20031;-74
2021/11/26 04:31:42;;;;;;;24.27;14.30;;;;;;;2.00;75.37;94344.47;5130463;27;20019;-74
2021/11/26 04:34:08;;;;;;;27.27;16.95;;;;;;;2.08;75.10;94353.47;5113403;28;20038;-74
2021/11/26 04:36:33;;;;;;;27.63;15.98;;;;;;;1.81;76.47;94345.59;5096348;28;20516;-74
2021/11/26 04:38:59;;;;;;;26.95;14.15;;;;;;;1.96;76.16;94360.94;5113256;28;20096;-74
2021/11/26 04:41:24;;;;;;;21.38;12.82;;;;;;;1.87;76.16;94335.88;5096290;28;20507;-74
2021/11/26 04:43:50;;;;;;;45.30;26.38;;;;;;;1.77;75.98;94325.28;5130153;28;20039;-74
2021/11/26 04:46:15;;;;;;;58.95;29.85;;;;;;;1.95;75.94;94343.94;5133595;27;20019;-74
2021/11/26 04:48:41;;;;;;;55.25;29.15;;;;;;;2.04;76.16;94357.97;5135661;27;20096;-74
2021/11/26 04:51:06;;;;;;;44.92;24.02;;;;;;;2.12;76.30;94353.22;5134354;27;20504;-74
2021/11/26 04:53:31;;;;;;;33.58;19.05;;;;;;;2.16;76.54;94359.00;5135478;27;20418;-75
2021/11/26 04:55:57;;;;;;;28.20;16.67;;;;;;;2.11;76.70;94361.81;5135516;27;20480;-74
2021/11/26 04:58:22;;;;;;;25.98;14.05;;;;;;;2.04;76.78;94350.28;5134220;27;20031;-74
2021/11/26 05:00:48;;;;;;;35.90;23.10;;;;;;;1.90;76.95;94348.50;5100158;27;20125;-74
2021/11/26 05:03:13;;;;;;;33.97;18.58;;;;;;;2.04;77.33;94357.97;5117061;27;20027;-74
2021/11/26 05:05:39;;;;;;;28.70;17.15;;;;;;;2.13;76.74;94348.94;5099963;27;20054;-74
2021/11/26 05:08:05;;;;;;;30.98;17.17;;;;;;;2.19;76.31;94344.25;5134134;27;20023;-75
2021/11/26 05:10:32;;;;;;;30.15;16.15;;;;;;;2.26;76.70;94351.59;5134205;27;20036;-74
2021/11/26 05:12:58;;;;;;;34.75;20.85;;;;;;;2.26;76.15;94337.06;5135159;27;20131;-74
2021/11/26 05:15:29;;;;;;;42.38;26.85;;;;;;;2.29;76.02;94325.81;5134046;27;20084;-74
2021/11/26 05:17:59;;;;;;;55.40;30.90;;;;;;;2.32;76.06;94305.13;5116951;27;20035;-74
2021/11/26 05:20:26;;;;;;;82.75;43.40;;;;;;;2.35;76.16;94313.44;5133936;27;20028;-74
2021/11/26 05:22:51;;;;;;;86.68;46.70;;;;;;;2.30;76.00;94294.13;5134960;27;20038;-74
2021/11/26 05:25:17;;;;;;;72.95;42.22;;;;;;;2.42;76.19;94312.19;5116687;27;20039;-74
2021/11/26 05:27:42;;;;;;;66.47;38.55;;;;;;;2.43;76.05;94310.44;5133713;27;20420;-75
2021/11/26 05:30:08;;;;;;;61.67;33.75;;;;;;;2.44;75.46;94312.06;5135127;27;20027;-74
2021/11/26 05:32:34;;;;;;;55.83;31.85;;;;;;;2.36;75.61;94288.63;5133690;27;20488;-74
2021/11/26 05:34:59;;;;;;;53.53;30.85;;;;;;;2.42;75.59;94303.63;5135008;27;20039;-74
2021/11/26 05:37:25;;;;;;;39.10;23.75;;;;;;;2.41;75.08;94304.56;5133503;27;20027;-74
2021/11/26 05:39:50;;;;;;;47.58;25.98;;;;;;;2.39;74.76;94298.69;5116416;27;20411;-74
2021/11/26 05:42:16;;;;;;;30.40;17.90;;;;;;;2.43;74.90;94307.88;5133437;27;20550;-74
2021/11/26 05:44:41;;;;;;;28.10;14.55;;;;;;;2.51;74.22;94302.28;5133391;27;20035;-74
2021/11/26 05:47:06;;;;;;;21.48;12.38;;;;;;;2.57;73.93;94297.63;5133351;27;20075;-74
2021/11/26 05:49:32;;;;;;;24.48;12.90;;;;;;;2.58;73.76;94303.56;5099099;27;20039;-74
2021/11/26 05:51:57;;;;;;;24.30;13.48;;;;;;;2.61;73.26;94301.63;5116146;27;20423;-74
2021/11/26 05:54:24;;;;;;;21.77;11.85;;;;;;;2.60;72.10;94307.69;5133185;27;20043;-74
2021/11/26 05:56:49;;;;;;;26.30;12.35;;;;;;;2.63;71.78;94310.06;5133242;27;20054;-74
2021/11/26 05:59:15;;;;;;;21.83;11.32;;;;;;;2.67;72.11;94309.00;5134309;27;20577;-74
2021/11/26 06:01:40;;;;;;;24.70;13.50;;;;;;;2.74;71.94;94295.78;5133041;27;20484;-74
2021/11/26 06:04:06;;;;;;;28.42;14.73;;;;;;;2.66;71.87;94273.97;5132767;27;20095;-74
2021/11/26 06:06:31;;;;;;;28.80;14.68;;;;;;;2.78;71.96;94282.66;5132977;27;20019;-74
2021/11/26 06:08:57;;;;;;;23.92;13.07;;;;;;;2.82;71.58;94266.19;5115652;27;20031;-74
2021/11/26 06:11:22;;;;;;;23.92;13.65;;;;;;;2.69;71.50;94260.16;5132961;27;20075;-74
2021/11/26 06:13:48;;;;;;;22.35;12.73;;;;;;;2.76;71.73;94264.00;5132681;27;20057;-74
2021/11/26 06:16:13;;;;;;;23.83;12.35;;;;;;;2.58;71.40;94221.50;5134014;27;20034;-74
2021/11/26 06:18:39;;;;;;;23.63;13.60;;;;;;;2.74;71.46;94241.91;5132644;27;20027;-74
2021/11/26 06:21:04;;;;;;;27.27;14.63;;;;;;;2.85;71.45;94253.16;5132952;27;20476;-74
2021/11/26 06:23:29;;;;;;;25.48;13.65;;;;;;;2.88;71.38;94263.22;5133846;27;20019;-74
2021/11/26 06:25:55;;;;;;;26.90;14.00;;;;;;;2.93;71.70;94265.53;5132540;27;20103;-74
2021/11/26 06:28:20;;;;;;;27.65;15.02;;;;;;;2.94;71.44;94259.47;5132543;27;20019;-74
2021/11/26 06:30:46;;;;;;;27.02;13.93;;;;;;;2.93;71.23;94262.97;5132620;27;20046;-74
2021/11/26 06:33:11;;;;;;;27.73;15.00;;;;;;;2.93;71.58;94273.22;5115271;27;20027;-74
2021/11/26 06:35:37;;;;;;;26.48;14.27;;;;;;;3.02;71.60;94262.38;5115395;27;20043;-74
2021/11/26 06:38:02;;;;;;;25.42;14.30;;;;;;;3.07;71.28;94260.34;5133449;27;20068;-74
2021/11/26 06:40:28;;;;;;;26.50;15.52;;;;;;;2.95;70.96;94255.16;5115203;27;20093;-74
2021/11/26 06:42:54;;;;;;;28.48;14.73;;;;;;;3.07;71.05;94265.50;5115030;27;20042;-74
2021/11/26 06:45:19;;;;;;;27.95;15.02;;;;;;;3.09;71.06;94260.25;5132318;27;20031;-74
2021/11/26 06:47:46;;;;;;;27.92;15.40;;;;;;;3.08;71.17;94241.47;5115040;27;20051;-74
2021/11/26 06:50:12;;;;;;;28.23;15.77;;;;;;;2.96;71.14;94242.25;5098386;27;20544;-74
2021/11/26 06:52:37;;;;;;;32.70;16.55;;;;;;;3.07;70.94;94234.69;5114805;27;20027;-74
2021/11/26 06:55:03;;;;;;;30.98;15.07;;;;;;;3.13;71.12;94230.91;5114910;27;20232;-74
2021/11/26 06:57:29;;;;;;;31.92;16.33;;;;;;;3.10;71.06;94224.22;5132145;27;20056;-74
2021/11/26 06:59:54;;;;;;;31.77;18.17;;;;;;;3.23;71.42;94234.56;5097488;27;20091;-74
2021/11/26 07:02:20;;;;;;;32.67;18.45;;;;;;;3.12;71.28;94219.00;5114795;27;20503;-74
2021/11/26 07:04:47;;;;;;;30.13;16.13;;;;;;;3.18;70.98;94220.38;5114334;27;20065;-74
2021/11/26 07:07:13;;;;;;;25.50;14.57;;;;;;;3.23;70.62;94213.19;5114832;27;20019;-74
2021/11/26 07:09:38;;;;;;;34.50;17.55;;;;;;;3.30;70.48;94211.88;5114421;27;20415;-74
2021/11/26 07:12:09;;;;;;;29.15;15.98;;;;;;;3.26;70.68;94210.41;5132935;27;20602;-74
2021/11/26 07:14:36;;;;;;;26.67;15.00;;;;;;;3.27;69.67;94212.09;5131600;27;20030;-74
2021/11/26 07:17:01;;;;;;;26.27;15.13;;;;;;;3.24;70.27;94196.88;5131330;27;20132;-74
2021/11/26 07:19:27;;;;;;;26.23;16.10;;;;;;;3.29;69.80;94192.28;5114459;27;20023;-74
2021/11/26 07:21:52;;;;;;;29.55;15.68;;;;;;;3.26;69.89;94185.59;5114408;27;20034;-74
2021/11/26 07:24:18;;;;;;;30.73;17.55;;;;;;;3.20;70.01;94172.31;5131393;27;20488;-74
2021/11/26 07:26:43;;;;;;;27.98;17.20;;;;;;;3.30;69.96;94163.91;5131597;27;20464;-74
2021/11/26 07:29:08;;;;;;;28.58;16.38;;;;;;;3.34;69.92;94167.09;5131217;27;20050;-75
2021/11/26 07:31:34;;;;;;;26.42;15.48;;;;;;;3.36;69.32;94165.28;5114103;27;20478;-74
2021/11/26 07:33:59;;;;;;;31.25;17.08;;;;;;;3.23;69.32;94154.13;5131169;27;20488;-74
2021/11/26 07:36:26;;;;;;;33.38;18.48;;;;;;;3.38;69.52;94168.56;5131244;27;20019;-74
2021/11/26 07:38:52;;;;;;;33.30;19.27;;;;;;;3.43;69.80;94163.97;5131274;27;20031;-74
2021/11/26 07:41:18;;;;;;;30.02;17.92;;;;;;;3.41;69.39;94162.41;5097005;27;20408;-74
2021/11/26 07:43:44;;;;;;;33.97;18.73;;;;;;;3.46;69.41;94166.31;5131053;27;20062;-74
2021/11/26 07:46:09;;;;;;;25.30;15.48;;;;;;;3.37;69.03;94148.94;5132214;27;20058;-74
2021/11/26 07:48:35;;;;;;;27.20;16.15;;;;;;;3.42;68.95;94141.75;5096833;27;20417;-74
2021/11/26 07:51:01;;;;;;;27.05;15.05;;;;;;;3.31;68.62;94127.03;5130959;27;20016;-74
2021/11/26 07:53:26;;;;;;;26.83;16.33;;;;;;;3.41;69.08;94129.84;5130943;27;20046;-74
2021/11/26 07:55:52;;;;;;;26.10;15.98;;;;;;;3.46;68.72;94116.72;5096676;27;20039;-74
2021/11/26 07:58:17;;;;;;;28.35;16.83;;;;;;;3.63;69.22;94128.44;5130797;27;20417;-74
2021/11/26 08:00:43;;;;;;;29.15;17.23;;;;;;;3.68;69.08;94128.97;5130989;27;20243;-74
2021/11/26 08:03:08;;;;;;;27.27;14.98;;;;;;;3.51;67.81;94118.06;5130855;27;20054;-74
2021/11/26 08:05:34;;;;;;;27.75;15.88;;;;;;;3.55;67.87;94095.56;5096741;27;20051;-74
2021/11/26 08:07:59;;;;;;;29.67;17.50;;;;;;;3.49;68.29;94101.09;5130621;27;20027;-74
2021/11/26 08:10:25;;;;;;;24.00;15.18;;;;;;;3.51;68.14;94094.94;5113759;28;20028;-74
2021/11/26 08:12:51;;;;;;;26.45;15.70;;;;;;;3.53;67.88;94100.78;5130715;27;20046;-74
2021/11/26 08:15:17;;;;;;;24.60;15.63;;;;;;;3.24;68.67;94087.31;5113597;28;20031;-74
2021/11/26 08:17:42;;;;;;;25.20;15.95;;;;;;;3.33;68.79;94085.88;5113571;28;20115;-74
2021/11/26 08:20:08;;;;;;;26.13;15.65;;;;;;;3.29;68.80;94087.84;5113115;28;20035;-74
2021/11/26 08:22:34;;;;;;;26.15;16.40;;;;;;;3.22;69.19;94085.75;5130599;28;20035;-74
2021/11/26 08:24:59;;;;;;;26.65;15.90;;;;;;;3.24;68.72;94086.50;5130498;27;20031;-74
2021/11/26 08:27:25;;;;;;;27.35;16.48;;;;;;;3.19;68.99;94089.34;5130483;28;20019;-74
2021/11/26 08:29:50;;;;;;;32.85;20.15;;;;;;;3.27;68.95;94106.81;5130501;28;20038;-74
2021/11/26 08:32:16;;;;;;;25.60;16.75;;;;;;;3.28;68.87;94103.31;5113362;28;20031;-74
2021/11/26 08:34:41;;;;;;;24.17;15.32;;;;;;;3.29;68.51;94099.84;5130447;28;20027;-75
2021/11/26 08:37:07;;;;;;;24.02;14.85;;;;;;;3.18;68.83;94097.16;5131646;27;20050;-75
2021/11/26 08:39:32;;;;;;;26.02;16.55;;;;;;;3.27;68.76;94086.28;5113220;28;20030;-74
2021/11/26 08:41:57;;;;;;;26.40;16.90;;;;;;;3.31;68.75;94080.00;5113303;28;20080;-73
2021/11/26 08:44:23;;;;;;;24.83;16.02;;;;;;;3.38;68.79;94078.69;5130406;28;20063;-74
2021/11/26 08:46:49;;;;;;;23.83;14.63;;;;;;;3.36;68.29;94052.28;5113179;28;20023;-75
2021/11/26 08:49:14;;;;;;;23.33;14.30;;;;;;;3.50;68.03;94065.03;5130600;28;20039;-75
2021/11/26 08:51:42;;;;;;;21.48;13.32;;;;;;;3.40;67.20;94025.50;5131565;27;20019;-74
2021/11/26 08:54:07;;;;;;;21.58;13.60;;;;;;;3.39;68.28;94013.56;5096815;28;20088;-74
2021/11/26 08:56:33;;;;;;;22.25;13.77;;;;;;;3.34;68.69;93987.38;5130194;27;20031;-74
2021/11/26 08:58:59;;;;;;;29.50;17.83;;;;;;;3.41;68.67;93978.34;5130132;28;20031;-74
2021/11/26 09:01:25;;;;;;;24.55;16.13;;;;;;;3.36;68.86;93990.69;5113308;28;20019;-74
2021/11/26 09:03:50;;;;;;;32.72;19.60;;;;;;;3.25;70.35;93954.63;5096208;28;20028;-74
2021/11/26 09:06:16;;;;;;;30.67;19.40;;;;;;;3.15;70.24;93957.03;5130346;28;20050;-74
2021/11/26 09:08:42;;;;;;;30.95;18.45;;;;;;;3.13;71.72;93959.69;5096105;28;20020;-74
2021/11/26 09:11:07;;;;;;;28.85;16.77;;;;;;;3.08;70.66;93943.75;5130287;28;20420;-74
2021/11/26 09:13:33;;;;;;;30.40;19.17;;;;;;;3.18;70.82;93904.66;5130140;28;20023;-74
2021/11/26 09:15:58;;;;;;;31.08;20.38;;;;;;;3.25;71.39;93909.25;5130047;28;20462;-75
2021/11/26 09:18:24;;;;;;;32.42;19.58;;;;;;;3.33;70.55;93921.56;5112750;28;20449;-74
2021/11/26 09:20:50;;;;;;;30.67;18.17;;;;;;;3.39;70.60;93913.44;5130105;28;20023;-74
2021/11/26 09:23:16;;;;;;;45.95;26.92;;;;;;;3.44;70.80;93903.69;5130124;28;20284;-74
2021/11/26 09:25:42;;;;;;;35.65;21.80;;;;;;;3.50;69.73;93910.94;5096037;28;20038;-74
2021/11/26 09:28:07;;;;;;;36.45;20.05;;;;;;;3.62;69.77;93926.44;5130009;28;20488;-75
2021/11/26 09:30:33;;;;;;;37.03;22.15;;;;;;;3.62;69.63;93890.47;5095788;27;20080;-74
2021/11/26 09:32:58;;;;;;;39.90;21.95;;;;;;;3.80;69.77;93876.34;5098270;27;20031;-75
2021/11/26 09:35:25;;;;;;;36.13;21.70;;;;;;;3.69;69.87;93855.72;5099540;27;20034;-74
2021/11/26 09:37:51;;;;;;;30.83;19.42;;;;;;;3.90;69.36;93863.63;5134735;27;20111;-74
2021/11/26 09:40:16;;;;;;;28.60;17.63;;;;;;;3.71;69.43;93838.47;5099504;27;20035;-74
2021/11/26 09:42:42;;;;;;;34.30;19.40;;;;;;;3.46;69.95;93847.09;5116311;27;20084;-75
2021/11/26 09:45:11;;;;;;;30.77;19.00;;;;;;;3.29;70.64;93827.72;5099281;27;20532;-75
2021/11/26 09:47:37;;;;;;;25.38;16.17;;;;;;;3.21;71.49;93832.59;5133422;27;20461;-75
2021/11/26 09:50:03;;;;;;;28.02;16.38;;;;;;;3.27;70.69;93829.59;5116242;27;20020;-74
2021/11/26 09:52:28;;;;;;;33.03;18.23;;;;;;;3.23;70.87;93830.72;5133487;27;20031;-74
2021/11/26 09:54:54;;;;;;;29.35;18.00;;;;;;;3.28;70.38;93820.94;5116147;27;20557;-75
2021/11/26 09:57:19;;;;;;;25.55;15.73;;;;;;;3.14;70.78;93794.47;5115938;27;20031;-74
2021/11/26 09:59:45;;;;;;;27.90;16.55;;;;;;;3.34;70.88;93797.41;5132890;27;20034;-74
2021/11/26 10:02:19;;;;;;;19.08;13.23;;;;;;;3.42;69.44;93758.34;5133094;27;20114;-74
2021/11/26 10:04:56;;;;;;;17.55;11.18;;;;;;;3.49;68.67;93757.81;5132798;27;20054;-74
2021/11/26 10:07:21;;;;;;;20.25;12.88;;;;;;;3.58;69.14;93761.47;5133039;27;20373;-74
2021/11/26 10:09:47;;;;;;;24.17;13.68;;;;;;;3.76;68.63;93764.44;5133012;27;20114;-74
2021/11/26 10:12:15;;;;;;;20.23;14.00;;;;;;;3.74;69.31;93771.47;5115795;27;20042;-74
2021/11/26 10:14:45;;;;;;;20.08;12.77;;;;;;;3.65;67.96;93734.41;5116211;27;20062;-74
2021/11/26 10:17:22;;;;;;;19.58;13.43;;;;;;;3.70;68.34;93749.47;5116038;27;20031;-74
2021/11/26 10:19:58;;;;;;;21.65;13.60;;;;;;;3.71;67.83;93764.78;5116044;27;20038;-74
2021/11/26 10:22:26;;;;;;;20.98;13.32;;;;;;;3.81;68.42;93775.19;5115813;27;20031;-75
2021/11/26 10:25:18;;;;;;;22.20;13.73;;;;;;;3.78;67.64;93762.59;5134017;27;20501;-74
2021/11/26 10:27:46;;;;;;;20.45;13.00;;;;;;;3.82;67.29;93779.44;5132727;27;20111;-74
2021/11/26 10:30:34;;;;;;;21.67;14.48;;;;;;;3.79;67.09;93738.53;5134038;27;20114;-74
2021/11/26 10:33:05;;;;;;;20.17;13.63;;;;;;;3.45;68.52;93709.34;5132629;27;20412;-74
2021/11/26 10:35:41;;;;;;;20.17;13.50;;;;;;;3.67;68.68;93698.31;5098546;27;20039;-75
2021/11/26 10:38:18;;;;;;;18.77;13.02;;;;;;;3.85;67.76;93717.53;5115528;27;20122;-74
2021/11/26 10:40:46;;;;;;;17.48;11.65;;;;;;;3.98;67.36;93738.00;5115458;27;20082;-74
2021/11/26 10:43:17;;;;;;;18.27;11.85;;;;;;;3.88;66.53;93726.78;5115133;27;20050;-74
2021/11/26 10:48:44;;;;;;;19.95;13.93;;;;;;;3.85;66.64;93752.69;5133320;27;20023;-74
2021/11/26 10:59:02;;;;;;;19.83;12.77;;;;;;;3.64;66.63;93768.72;5117657;27;20239;-74
2021/11/26 11:01:28;;;;;;;22.75;13.98;;;;;;;3.70;67.10;93755.44;5131939;27;20015;-74
2021/11/26 11:03:54;;;;;;;19.42;12.90;;;;;;;3.85;67.12;93732.94;5097466;27;20420;-74
2021/11/26 11:06:21;;;;;;;22.02;14.23;;;;;;;3.79;67.59;93703.41;5131699;27;20043;-74
2021/11/26 11:09:02;;;;;;;24.38;16.73;;;;;;;4.03;67.41;93698.16;5114806;27;20055;-75
2021/11/26 11:11:27;;;;;;;28.85;19.15;;;;;;;4.17;66.77;93701.47;5098580;27;20039;-74
2021/11/26 11:13:53;;;;;;;27.65;18.20;;;;;;;4.21;66.39;93708.03;5131484;27;20092;-74
2021/11/26 11:16:18;;;;;;;25.40;17.65;;;;;;;4.29;66.18;93689.41;5131638;27;20023;-74
2021/11/26 11:18:44;;;;;;;28.38;17.40;;;;;;;4.19;65.92;93663.59;5131255;27;20050;-74
2021/11/26 11:21:09;;;;;;;26.88;16.52;;;;;;;4.27;66.21;93661.28;5131487;27;20023;-74
2021/11/26 11:23:35;;;;;;;23.55;15.63;;;;;;;4.31;65.89;93649.81;5114527;27;20034;-74
2021/11/26 11:26:00;;;;;;;24.17;15.43;;;;;;;4.34;66.28;93665.00;5097171;27;20027;-74
2021/11/26 11:28:26;;;;;;;22.10;14.95;;;;;;;4.46;65.77;93676.94;5114176;27;20031;-75
2021/11/26 11:30:52;;;;;;;24.65;16.30;;;;;;;4.54;65.53;93672.94;5114065;27;20060;-74